createdAt,value
2022-08-27T00:00:56.153Z,14.40
2022-08-27T00:06:03.797Z,12.60
2022-08-27T00:11:11.425Z,13.03
2022-08-27T00:16:18.686Z,12.87
2022-08-27T00:21:27.899Z,12.80
2022-08-27T00:26:33.003Z,12.97
2022-08-27T00:31:38.375Z,11.67
2022-08-27T00:36:46.112Z,12.80
2022-08-27T00:41:51.166Z,11.47
2022-08-27T00:46:59.416Z,11.57
2022-08-27T00:52:11.408Z,11.60
2022-08-27T00:57:18.040Z,11.57
2022-08-27T01:02:26.250Z,11.93
2022-08-27T01:07:39.165Z,12.60
2022-08-27T01:12:44.815Z,12.10
2022-08-27T01:18:00.279Z,12.33
2022-08-27T01:23:16.852Z,11.03
2022-08-27T01:28:26.866Z,12.33
2022-08-27T01:33:41.828Z,12.97
2022-08-27T01:38:46.974Z,12.80
2022-08-27T01:43:56.626Z,13.37
2022-08-27T01:49:01.734Z,13.23
2022-08-27T01:54:07.064Z,12.20
2022-08-27T01:59:14.766Z,12.47
2022-08-27T02:04:19.639Z,11.23
2022-08-27T02:09:24.778Z,12.00
2022-08-27T02:14:32.880Z,12.57
2022-08-27T02:19:37.951Z,12.47
2022-08-27T02:24:43.285Z,12.60
2022-08-27T02:29:51.995Z,13.07
2022-08-27T02:34:56.955Z,13.40
2022-08-27T02:40:02.220Z,12.57
2022-08-27T02:45:10.877Z,13.57
2022-08-27T02:50:17.098Z,14.03
2022-08-27T02:55:22.626Z,14.87
2022-08-27T03:00:31.773Z,15.27
2022-08-27T03:05:37.204Z,15.07
2022-08-27T03:10:42.401Z,16.23
2022-08-27T03:15:50.408Z,15.50
2022-08-27T03:20:59.552Z,15.23
2022-08-27T03:26:06.508Z,15.93
2022-08-27T03:31:27.122Z,15.40
2022-08-27T03:36:34.246Z,16.53
2022-08-27T03:41:43.449Z,16.10
2022-08-27T03:47:02.609Z,16.60
2022-08-27T03:52:07.771Z,14.90
2022-08-27T03:57:12.684Z,16.40
2022-08-27T04:02:20.276Z,16.53
2022-08-27T04:07:25.169Z,17.80
2022-08-27T04:12:30.124Z,18.07
2022-08-27T04:17:37.656Z,18.47
2022-08-27T04:22:42.919Z,17.63
2022-08-27T04:27:48.206Z,16.60
2022-08-27T04:32:55.877Z,16.10
2022-08-27T04:38:00.915Z,15.33
2022-08-27T04:43:05.810Z,15.90
2022-08-27T04:48:13.664Z,15.70
2022-08-27T04:53:20.506Z,15.40
2022-08-27T04:58:28.368Z,14.27
2022-08-27T05:03:36.704Z,13.80
2022-08-27T05:08:42.167Z,13.90
2022-08-27T05:13:48.729Z,13.63
2022-08-27T05:18:56.975Z,14.17
2022-08-27T05:24:04.923Z,14.63
2022-08-27T05:29:09.973Z,14.60
2022-08-27T05:34:19.221Z,16.53
2022-08-27T05:39:29.954Z,20.30
2022-08-27T05:44:41.034Z,19.40
2022-08-27T05:49:50.488Z,21.93
2022-08-27T05:54:55.479Z,22.63
2022-08-27T06:00:14.721Z,21.93
2022-08-27T06:05:24.189Z,22.57
2022-08-27T06:10:29.249Z,23.40
2022-08-27T06:15:34.514Z,23.00
2022-08-27T06:20:43.452Z,22.63
2022-08-27T06:25:48.523Z,23.50
2022-08-27T06:30:53.587Z,24.50
2022-08-27T06:36:02.019Z,27.47
2022-08-27T06:41:07.327Z,28.60
2022-08-27T06:46:23.764Z,29.33
2022-08-27T06:51:33.423Z,29.23
2022-08-27T06:56:39.220Z,29.37
2022-08-27T07:01:47.035Z,27.07
2022-08-27T07:06:54.641Z,25.63
2022-08-27T07:12:01.525Z,26.33
2022-08-27T07:17:07.445Z,27.63
2022-08-27T07:22:18.659Z,27.40
2022-08-27T07:27:23.855Z,28.00
2022-08-27T07:32:30.479Z,28.93
2022-08-27T07:37:40.383Z,31.33
2022-08-27T07:43:00.921Z,32.23
2022-08-27T07:48:06.401Z,33.63
2022-08-27T07:53:13.969Z,33.50
2022-08-27T07:58:22.082Z,31.83
2022-08-27T08:03:27.297Z,32.23
2022-08-27T08:08:37.061Z,31.27
2022-08-27T08:13:45.293Z,29.30
2022-08-27T08:18:50.445Z,29.43
2022-08-27T08:24:00.591Z,27.37
2022-08-27T08:29:06.331Z,26.10
2022-08-27T08:34:11.623Z,25.70
2022-08-27T08:39:28.357Z,27.87
2022-08-27T08:44:38.905Z,27.97
2022-08-27T08:49:51.511Z,27.90
2022-08-27T08:55:06.140Z,25.57
2022-08-27T09:00:17.616Z,26.33
2022-08-27T09:05:27.424Z,25.73
2022-08-27T09:10:47.221Z,25.93
2022-08-27T09:15:54.699Z,26.90
2022-08-27T09:21:08.853Z,25.93
2022-08-27T09:26:28.788Z,23.53
2022-08-27T09:31:41.491Z,26.30
2022-08-27T09:37:02.856Z,25.80
2022-08-27T09:42:12.019Z,25.33
2022-08-27T09:47:18.106Z,23.10
2022-08-27T09:52:37.778Z,22.60
2022-08-27T09:57:47.149Z,21.20
2022-08-27T10:02:55.507Z,19.43
2022-08-27T10:08:05.378Z,18.77
2022-08-27T10:13:20.211Z,14.87
2022-08-27T10:18:40.225Z,12.83
2022-08-27T10:23:53.265Z,9.93
2022-08-27T10:29:16.648Z,6.80
2022-08-27T10:34:35.227Z,5.23
2022-08-27T10:40:04.634Z,3.27
2022-08-27T10:45:26.657Z,2.20
2022-08-27T10:50:45.634Z,2.30
2022-08-27T10:55:57.108Z,2.40
2022-08-27T11:01:16.159Z,2.10
2022-08-27T11:06:29.043Z,1.90
2022-08-27T11:17:11.567Z,1.60
2022-08-27T11:22:26.142Z,3.00
2022-08-27T11:27:35.115Z,3.67
2022-08-27T11:32:58.089Z,4.60
2022-08-27T11:38:37.573Z,5.73
2022-08-27T11:43:45.081Z,7.20
2022-08-27T11:49:00.960Z,8.63
2022-08-27T11:54:10.800Z,7.40
2022-08-27T11:59:24.894Z,8.40
2022-08-27T12:04:41.922Z,9.73
2022-08-27T12:09:58.723Z,9.43
2022-08-27T12:15:08.453Z,10.57
2022-08-27T12:20:24.478Z,12.63
2022-08-27T12:25:30.458Z,13.63
2022-08-27T12:30:38.038Z,16.47
2022-08-27T12:35:51.055Z,16.90
2022-08-27T12:41:03.840Z,18.10
2022-08-27T12:46:16.948Z,12.80
2022-08-27T12:51:28.841Z,11.57
2022-08-27T12:56:58.107Z,11.50
2022-08-27T13:02:19.231Z,12.57
2022-08-27T13:07:42.401Z,12.77
2022-08-27T13:12:49.598Z,13.93
2022-08-27T13:17:54.752Z,14.77
2022-08-27T13:23:02.414Z,15.63
2022-08-27T13:28:15.756Z,14.87
2022-08-27T13:33:28.003Z,15.23
2022-08-27T13:38:40.490Z,16.27
2022-08-27T13:43:48.419Z,14.93
2022-08-27T13:48:57.371Z,16.00
2022-08-27T13:54:17.610Z,16.57
2022-08-27T13:59:29.127Z,16.83
2022-08-27T14:04:43.511Z,16.03
2022-08-27T14:09:54.135Z,15.23
2022-08-27T14:15:00.813Z,13.80
2022-08-27T14:20:09.312Z,14.97
2022-08-27T14:25:17.821Z,14.90
2022-08-27T14:30:30.006Z,16.00
2022-08-27T14:35:38.829Z,16.93
2022-08-27T14:40:46.597Z,15.97
2022-08-27T14:45:52.000Z,16.40
2022-08-27T14:51:10.818Z,16.53
2022-08-27T14:56:18.830Z,15.37
2022-08-27T15:01:26.571Z,15.10
2022-08-27T15:06:34.198Z,14.40
2022-08-27T15:11:42.825Z,14.80
2022-08-27T15:16:47.759Z,17.07
2022-08-27T15:22:03.420Z,16.53
2022-08-27T15:27:11.058Z,15.37
2022-08-27T15:32:25.372Z,14.77
2022-08-27T15:37:34.714Z,13.13
2022-08-27T15:42:42.458Z,13.53
2022-08-27T15:47:48.926Z,14.40
2022-08-27T15:52:58.411Z,14.27
2022-08-27T15:58:07.014Z,14.43
2022-08-27T16:03:15.560Z,14.47
2022-08-27T16:08:20.618Z,14.80
2022-08-27T16:13:28.855Z,15.00
2022-08-27T16:18:36.667Z,13.30
2022-08-27T16:23:41.663Z,14.00
2022-08-27T16:28:49.348Z,13.63
2022-08-27T16:33:54.706Z,12.93
2022-08-27T16:39:00.211Z,14.63
2022-08-27T16:44:08.146Z,14.60
2022-08-27T16:49:27.719Z,13.50
2022-08-27T16:54:32.716Z,13.27
2022-08-27T16:59:40.777Z,14.77
2022-08-27T17:04:51.028Z,13.57
2022-08-27T17:10:07.024Z,14.57
2022-08-27T17:15:15.050Z,15.73
2022-08-27T17:20:23.011Z,15.10
2022-08-27T17:25:29.917Z,15.23
2022-08-27T17:30:37.968Z,14.73
2022-08-27T17:35:43.971Z,14.30
2022-08-27T17:40:51.861Z,13.70
2022-08-27T17:46:00.179Z,14.93
2022-08-27T17:51:05.262Z,13.47
2022-08-27T17:56:10.125Z,14.00
2022-08-27T18:01:20.907Z,13.53
2022-08-27T18:06:27.840Z,14.70
2022-08-27T18:11:32.935Z,14.43
2022-08-27T18:16:40.709Z,15.13
2022-08-27T18:21:46.810Z,16.20
2022-08-27T18:26:52.469Z,15.20
2022-08-27T18:32:00.126Z,15.73
2022-08-27T18:37:05.937Z,15.70
2022-08-27T18:42:12.523Z,15.57
2022-08-27T18:47:20.179Z,15.10
2022-08-27T18:52:28.136Z,16.57
2022-08-27T18:57:33.098Z,15.23
2022-08-27T19:02:41.519Z,13.70
2022-08-27T19:07:46.590Z,12.53
2022-08-27T19:12:51.875Z,12.47
2022-08-27T19:18:03.019Z,11.90
2022-08-27T19:23:08.012Z,13.57
2022-08-27T19:28:13.328Z,13.20
2022-08-27T19:33:22.529Z,12.37
2022-08-27T19:38:29.623Z,12.23
2022-08-27T19:43:35.556Z,12.27
2022-08-27T19:48:43.115Z,11.03
2022-08-27T19:53:48.347Z,11.93
2022-08-27T19:58:58.113Z,12.00
2022-08-27T20:04:09.434Z,10.43
2022-08-27T20:09:16.512Z,10.73
2022-08-27T20:14:24.584Z,11.30
2022-08-27T20:19:32.316Z,9.93
2022-08-27T20:24:37.543Z,9.83
2022-08-27T20:29:42.527Z,11.53
2022-08-27T20:34:50.056Z,11.67
2022-08-27T20:39:55.286Z,13.23
2022-08-27T20:45:00.320Z,11.83
2022-08-27T20:50:11.987Z,12.10
2022-08-27T20:55:17.816Z,11.23
2022-08-27T21:00:23.009Z,10.57
2022-08-27T21:05:35.953Z,9.63
2022-08-27T21:10:46.970Z,9.93
2022-08-27T21:15:54.611Z,7.50
2022-08-27T21:21:10.025Z,7.03
2022-08-27T21:26:17.977Z,6.97
2022-08-27T21:31:23.004Z,7.37
2022-08-27T21:36:31.264Z,7.40
2022-08-27T21:41:38.846Z,7.70
2022-08-27T21:46:43.997Z,5.97
2022-08-27T21:51:53.118Z,5.17
2022-08-27T21:56:58.077Z,4.83
2022-08-27T22:02:07.393Z,4.40
2022-08-27T22:07:21.406Z,4.23
2022-08-27T22:12:26.637Z,4.80
2022-08-27T22:17:31.522Z,3.60
2022-08-27T22:22:40.769Z,2.93
2022-08-27T22:27:45.822Z,2.80
2022-08-27T22:32:50.772Z,3.03
2022-08-27T22:37:58.470Z,3.17
2022-08-27T22:43:03.937Z,2.83
2022-08-27T22:48:09.507Z,4.03
2022-08-27T22:53:17.152Z,4.17
2022-08-27T22:58:24.482Z,4.07
2022-08-27T23:03:29.870Z,3.27
2022-08-27T23:08:37.951Z,2.17
2022-08-27T23:13:43.820Z,2.70
2022-08-27T23:18:48.746Z,2.63
2022-08-27T23:23:56.297Z,2.60
2022-08-27T23:29:01.542Z,2.40
2022-08-27T23:34:06.485Z,2.73
2022-08-27T23:39:14.381Z,3.20
2022-08-27T23:44:19.273Z,4.23
2022-08-27T23:49:24.144Z,4.53
2022-08-27T23:54:31.786Z,5.47
2022-08-27T23:59:36.643Z,5.17
